Time;durP1;ratioP1;P1;durP2;ratioP2;P2;SDS_P1;SDS_P2;PMS_P1;PMS_P2;Temp;Humidity;BMP_temperature;BMP_pressure;BME280_temperature;BME280_humidity;BME280_pressure;Samples;Min_cycle;Max_cycle;Signal;HPM_P1;HPM_P2
2022/12/02 00:02:30;;;;;;;2.90;0.40;;;;;;;4.65;100.00;102408.59;5226780;28;20036;-66
2022/12/02 00:05:14;;;;;;;4.13;0.80;;;;;;;4.63;100.00;102413.06;5224814;28;20467;-66
2022/12/02 00:07:45;;;;;;;3.88;0.80;;;;;;;4.63;100.00;102409.56;5224577;28;20547;-66
2022/12/02 00:10:22;;;;;;;2.47;0.52;;;;;;;4.62;100.00;102408.72;5222935;28;20029;-66
2022/12/02 00:12:54;;;;;;;2.35;0.60;;;;;;;4.61;100.00;102406.97;5223887;28;20128;-65
2022/12/02 00:15:43;;;;;;;2.47;0.40;;;;;;;4.62;100.00;102410.47;5222453;28;20047;-66
2022/12/02 00:18:15;;;;;;;0.60;0.20;;;;;;;4.60;100.00;102402.59;5220266;28;20044;-66
2022/12/02 00:20:46;;;;;;;2.10;0.43;;;;;;;4.59;100.00;102406.13;5222269;28;20982;-66
2022/12/02 00:23:18;;;;;;;2.42;0.47;;;;;;;4.57;100.00;102399.16;5217920;28;20029;-66
2022/12/02 00:25:51;;;;;;;2.67;0.52;;;;;;;4.55;100.00;102403.63;5217884;28;20422;-65
2022/12/02 00:28:23;;;;;;;1.80;0.63;;;;;;;4.51;100.00;102401.03;5221090;28;20033;-66
2022/12/02 00:30:54;;;;;;;3.97;1.02;;;;;;;4.51;100.00;102395.75;5225296;28;20063;-65
2022/12/02 00:33:25;;;;;;;1.75;0.52;;;;;;;4.49;100.00;102392.28;5229227;28;20227;-66
2022/12/02 00:35:56;;;;;;;1.52;0.47;;;;;;;4.46;100.00;102381.78;5229688;28;20029;-66
2022/12/02 00:38:28;;;;;;;3.20;0.80;;;;;;;4.43;100.00;102386.28;5226453;28;20112;-66
2022/12/02 00:40:59;;;;;;;1.13;0.32;;;;;;;4.41;100.00;102378.41;5230972;28;20526;-67
2022/12/02 00:46:33;;;;;;;1.10;0.32;;;;;;;4.36;100.00;102376.81;5229550;28;20033;-66
2022/12/02 00:49:13;;;;;;;3.80;0.65;;;;;;;4.32;100.00;102379.50;5231157;28;20029;-66
2022/12/02 00:51:44;;;;;;;1.98;0.60;;;;;;;4.30;100.00;102378.69;5229321;28;20025;-67
2022/12/02 00:54:16;;;;;;;1.85;0.38;;;;;;;4.31;100.00;102379.53;5231525;28;22038;-66
2022/12/02 00:56:47;;;;;;;1.48;0.50;;;;;;;4.32;100.00;102374.22;5236224;28;20025;-66
2022/12/02 00:59:18;;;;;;;1.50;0.30;;;;;;;4.32;100.00;102374.22;5232282;28;20033;-67
2022/12/02 01:01:49;;;;;;;0.28;0.03;;;;;;;4.30;100.00;102373.41;5238876;28;20411;-65
2022/12/02 01:04:21;;;;;;;2.08;0.70;;;;;;;4.25;100.00;102377.06;5232262;28;20048;-66
2022/12/02 01:06:52;;;;;;;1.48;0.40;;;;;;;4.22;100.00;102367.44;5233332;28;20025;-65
2022/12/02 01:09:23;;;;;;;2.15;0.60;;;;;;;4.21;100.00;102368.34;5232837;28;20033;-66
2022/12/02 01:11:55;;;;;;;3.17;0.93;;;;;;;4.20;100.00;102363.09;5235179;28;20517;-67
2022/12/02 01:14:26;;;;;;;2.08;0.50;;;;;;;4.21;100.00;102375.41;5234099;28;20510;-66
2022/12/02 01:16:57;;;;;;;1.77;0.43;;;;;;;4.20;100.00;102368.38;5232329;28;20633;-66
2022/12/02 01:19:29;;;;;;;1.95;0.60;;;;;;;4.15;100.00;102362.38;5235223;28;20446;-66
2022/12/02 01:22:00;;;;;;;2.00;0.40;;;;;;;4.16;100.00;102367.63;5229892;28;20128;-66
2022/12/02 01:24:31;;;;;;;2.63;0.93;;;;;;;4.16;100.00;102369.38;5233014;28;20044;-66
2022/12/02 01:27:02;;;;;;;1.95;0.60;;;;;;;4.13;100.00;102371.19;5233880;28;20026;-66
2022/12/02 01:29:34;;;;;;;5.20;0.93;;;;;;;4.12;100.00;102364.19;5233569;28;20187;-66
2022/12/02 01:32:05;;;;;;;1.08;0.25;;;;;;;4.13;100.00;102365.91;5227095;28;20395;-66
2022/12/02 01:34:36;;;;;;;3.53;0.70;;;;;;;4.14;100.00;102358.84;5220607;28;20424;-66
2022/12/02 01:37:07;;;;;;;2.25;0.40;;;;;;;4.14;100.00;102369.41;5221883;28;20637;-66
2022/12/02 01:39:39;;;;;;;1.15;0.15;;;;;;;4.15;100.00;102365.88;5219665;28;20033;-66
2022/12/02 01:42:10;;;;;;;1.27;0.10;;;;;;;4.13;100.00;102365.91;5221106;28;20443;-66
2022/12/02 01:44:41;;;;;;;1.00;0.30;;;;;;;4.15;100.00;102371.16;5225218;28;20369;-66
2022/12/02 01:47:13;;;;;;;1.17;0.70;;;;;;;4.16;100.00;102372.91;5222554;28;20557;-66
2022/12/02 01:49:44;;;;;;;1.75;0.35;;;;;;;4.16;100.00;102367.63;5222515;28;20037;-66
2022/12/02 01:52:15;;;;;;;2.25;0.32;;;;;;;4.16;100.00;102366.72;5222437;28;20487;-66
2022/12/02 01:54:47;;;;;;;0.38;0.10;;;;;;;4.17;100.00;102368.47;5223391;28;20053;-66
2022/12/02 01:57:24;;;;;;;0.40;0.05;;;;;;;4.17;100.00;102366.69;5221893;28;20037;-66
2022/12/02 01:59:56;;;;;;;1.00;0.52;;;;;;;4.17;100.00;102368.47;5222034;28;20107;-65
2022/12/02 02:02:36;;;;;;;0.57;0.10;;;;;;;4.16;100.00;102364.09;5224396;28;20041;-66
2022/12/02 02:05:17;;;;;;;1.42;0.52;;;;;;;4.14;100.00;102361.47;5222920;28;20116;-66
2022/12/02 02:07:51;;;;;;;1.23;0.22;;;;;;;4.09;100.00;102366.03;5220556;28;20048;-66
2022/12/02 02:10:25;;;;;;;2.22;0.30;;;;;;;4.08;100.00;102364.28;5222066;28;20107;-66
2022/12/02 02:12:57;;;;;;;0.47;0.05;;;;;;;4.06;100.00;102361.66;5222522;28;20037;-66
2022/12/02 02:15:29;;;;;;;1.40;0.45;;;;;;;4.01;100.00;102367.97;5223501;28;20031;-66
2022/12/02 02:18:00;;;;;;;0.60;0.20;;;;;;;3.98;100.00;102358.34;5220126;28;20029;-66
2022/12/02 02:20:33;;;;;;;1.20;0.45;;;;;;;3.95;100.00;102363.72;5223335;28;20142;-66
2022/12/02 02:23:04;;;;;;;1.63;0.20;;;;;;;3.93;100.00;102368.16;5222279;28;20082;-66
2022/12/02 02:25:44;;;;;;;2.53;0.47;;;;;;;3.89;100.00;102354.19;5225117;28;20029;-66
2022/12/02 02:28:17;;;;;;;0.73;0.38;;;;;;;3.90;100.00;102370.88;5226842;28;20062;-66
2022/12/02 02:30:50;;;;;;;0.25;0.10;;;;;;;3.87;100.00;102365.66;5234244;28;20143;-66
2022/12/02 02:33:24;;;;;;;4.07;0.40;;;;;;;3.84;100.00;102355.19;5234223;28;20104;-66
2022/12/02 02:35:56;;;;;;;2.35;0.50;;;;;;;3.80;100.00;102358.81;5233829;28;20116;-66
2022/12/02 02:38:28;;;;;;;1.75;0.68;;;;;;;3.78;100.00;102355.31;5232059;28;20033;-66
2022/12/02 02:41:00;;;;;;;4.15;0.65;;;;;;;3.76;100.00;102354.50;5233190;28;20097;-66
2022/12/02 02:43:32;;;;;;;3.40;0.57;;;;;;;3.74;100.00;102354.56;5224036;28;20071;-66
2022/12/02 02:46:04;;;;;;;4.10;0.60;;;;;;;3.74;100.00;102349.28;5226409;28;20036;-66
2022/12/02 02:48:37;;;;;;;1.25;0.30;;;;;;;3.73;100.00;102344.88;5225266;28;20057;-66
2022/12/02 02:51:09;;;;;;;1.73;0.20;;;;;;;3.72;100.00;102341.38;5223640;28;20033;-66
2022/12/02 02:53:40;;;;;;;2.75;0.95;;;;;;;3.70;100.00;102343.19;5221751;28;20033;-66
2022/12/02 02:56:12;;;;;;;2.20;0.43;;;;;;;3.68;100.00;102344.13;5224637;28;20452;-65
2022/12/02 02:58:44;;;;;;;2.08;0.60;;;;;;;3.65;100.00;102334.50;5225395;28;20031;-66
2022/12/02 03:01:26;;;;;;;3.33;0.60;;;;;;;3.66;100.00;102338.91;5226658;28;20037;-66
2022/12/02 03:04:01;;;;;;;2.33;0.65;;;;;;;3.61;100.00;102340.75;5224977;28;20036;-66
2022/12/02 03:06:34;;;;;;;3.60;1.00;;;;;;;3.53;100.00;102346.22;5224926;28;20033;-66
2022/12/02 03:09:08;;;;;;;2.88;0.77;;;;;;;3.50;100.00;102330.44;5226259;28;20526;-66
2022/12/02 03:11:42;;;;;;;3.80;0.60;;;;;;;3.49;100.00;102320.81;5222607;28;20033;-66
2022/12/02 03:14:16;;;;;;;2.20;0.45;;;;;;;3.49;100.00;102322.56;5225945;28;20029;-65
2022/12/02 03:16:48;;;;;;;2.13;0.50;;;;;;;3.47;100.00;102324.38;5225636;28;20036;-66
2022/12/02 03:19:20;;;;;;;3.30;0.73;;;;;;;3.46;100.00;102312.94;5224756;28;20052;-66
2022/12/02 03:21:51;;;;;;;2.00;0.30;;;;;;;3.43;100.00;102320.06;5224451;28;20041;-65
2022/12/02 03:24:23;;;;;;;1.95;0.40;;;;;;;3.38;100.00;102312.25;5225415;28;20032;-66
2022/12/02 03:26:54;;;;;;;1.73;0.45;;;;;;;3.36;100.00;102306.16;5223488;28;20021;-66
2022/12/02 03:29:27;;;;;;;3.50;0.82;;;;;;;3.33;100.00;102315.00;5222622;28;20029;-66
2022/12/02 03:32:00;;;;;;;3.00;0.95;;;;;;;3.31;100.00;102318.56;5224402;28;20108;-66
2022/12/02 03:34:32;;;;;;;1.90;0.63;;;;;;;3.30;100.00;102330.03;5219561;28;20116;-66
2022/12/02 03:37:03;;;;;;;3.38;0.68;;;;;;;3.26;100.00;102325.72;5225432;28;20396;-65
2022/12/02 03:39:36;;;;;;;4.57;0.77;;;;;;;3.22;100.00;102330.22;5224344;28;20033;-66
2022/12/02 03:42:08;;;;;;;3.13;1.05;;;;;;;3.21;100.00;102323.19;5222750;28;20018;-66
2022/12/02 03:44:39;;;;;;;3.83;1.05;;;;;;;3.22;100.00;102313.50;5225583;28;20037;-66
2022/12/02 03:47:11;;;;;;;2.20;0.63;;;;;;;3.19;100.00;102318.88;5224282;28;20025;-66
2022/12/02 03:49:43;;;;;;;3.58;0.75;;;;;;;3.19;100.00;102309.16;5223398;28;20025;-66
2022/12/02 03:52:14;;;;;;;1.95;0.40;;;;;;;3.18;100.00;102312.69;5221630;28;20041;-65
2022/12/02 03:54:46;;;;;;;2.58;0.40;;;;;;;3.16;100.00;102305.72;5223730;28;20076;-66
2022/12/02 03:57:17;;;;;;;1.50;0.32;;;;;;;3.16;100.00;102308.38;5224569;28;20033;-66
2022/12/02 03:59:49;;;;;;;2.63;1.00;;;;;;;3.12;100.00;102304.94;5226615;28;20032;-67
2022/12/02 04:02:20;;;;;;;1.85;0.60;;;;;;;3.10;100.00;102290.91;5224135;28;20033;-66
2022/12/02 04:04:51;;;;;;;2.70;0.75;;;;;;;3.08;100.00;102290.06;5224951;28;20036;-66
2022/12/02 04:07:22;;;;;;;2.78;0.80;;;;;;;3.09;100.00;102297.97;5223832;28;20025;-66
2022/12/02 04:09:54;;;;;;;1.80;0.35;;;;;;;3.08;100.00;102290.06;5225207;28;20444;-66
2022/12/02 04:12:25;;;;;;;2.55;0.70;;;;;;;3.08;100.00;102292.72;5223883;28;20036;-66
2022/12/02 04:14:56;;;;;;;1.33;0.47;;;;;;;3.07;100.00;102294.50;5222897;28;20084;-66
2022/12/02 04:17:27;;;;;;;2.08;0.52;;;;;;;3.05;100.00;102291.03;5222922;28;20041;-66
2022/12/02 04:19:59;;;;;;;2.00;0.47;;;;;;;3.03;100.00;102284.91;5225241;28;20030;-66
2022/12/02 04:22:30;;;;;;;2.67;0.50;;;;;;;3.03;100.00;102292.81;5225638;28;21177;-66
2022/12/02 04:25:03;;;;;;;1.40;0.40;;;;;;;3.01;100.00;102288.47;5227614;28;20674;-66
2022/12/02 04:27:35;;;;;;;1.13;0.30;;;;;;;3.00;100.00;102284.13;5228607;28;20083;-66
2022/12/02 04:30:07;;;;;;;1.35;0.35;;;;;;;3.00;100.00;102281.47;5227350;28;20116;-66
2022/12/02 04:32:38;;;;;;;1.63;0.30;;;;;;;3.01;100.00;102283.19;5229100;28;20037;-66
2022/12/02 04:35:09;;;;;;;2.05;0.57;;;;;;;2.96;100.00;102272.75;5226947;28;20037;-66
2022/12/02 04:37:40;;;;;;;1.85;0.50;;;;;;;2.95;100.00;102278.91;5227585;28;20037;-66
2022/12/02 04:40:12;;;;;;;2.35;0.50;;;;;;;2.92;100.00;102279.00;5230332;28;20037;-66
2022/12/02 04:42:43;;;;;;;2.40;0.55;;;;;;;2.89;100.00;102284.31;5231188;28;20045;-66
2022/12/02 04:45:15;;;;;;;1.77;0.38;;;;;;;2.86;100.00;102285.28;5234969;28;20834;-66
2022/12/02 04:47:46;;;;;;;2.60;0.70;;;;;;;2.86;100.00;102284.41;5231409;28;20484;-66
2022/12/02 04:50:17;;;;;;;1.05;0.35;;;;;;;2.83;100.00;102272.13;5233789;28;20451;-66
2022/12/02 04:52:48;;;;;;;3.30;0.70;;;;;;;2.81;100.00;102279.22;5226812;28;20079;-66
2022/12/02 04:55:20;;;;;;;3.92;0.70;;;;;;;2.78;100.00;102275.78;5233547;28;20049;-66
2022/12/02 04:57:52;;;;;;;5.13;1.05;;;;;;;2.77;100.00;102280.19;5227253;28;20371;-66
2022/12/02 05:00:23;;;;;;;2.97;0.98;;;;;;;2.76;100.00;102278.44;5226285;28;20541;-66
2022/12/02 05:02:55;;;;;;;2.53;0.60;;;;;;;2.74;100.00;102267.06;5229998;28;20030;-66
2022/12/02 05:05:27;;;;;;;2.45;0.70;;;;;;;2.73;100.00;102267.97;5227267;28;20033;-65
2022/12/02 05:07:58;;;;;;;2.03;0.45;;;;;;;2.73;100.00;102268.84;5230112;28;20024;-66
2022/12/02 05:10:29;;;;;;;3.33;1.30;;;;;;;2.70;100.00;102260.13;5228442;28;20041;-66
2022/12/02 05:13:01;;;;;;;2.53;0.77;;;;;;;2.70;100.00;102262.75;5224222;28;20040;-66
2022/12/02 05:15:32;;;;;;;1.83;0.65;;;;;;;2.71;100.00;102267.16;5227078;28;20057;-66
2022/12/02 05:18:03;;;;;;;1.30;0.63;;;;;;;2.72;100.00;102256.56;5229257;28;20039;-66
2022/12/02 05:20:35;;;;;;;2.22;0.88;;;;;;;2.71;100.00;102246.06;5227208;28;20395;-66
2022/12/02 05:23:06;;;;;;;1.35;0.30;;;;;;;2.72;100.00;102251.31;5227440;28;20033;-66
2022/12/02 05:25:37;;;;;;;1.42;0.45;;;;;;;2.73;100.00;102249.53;5244015;28;20033;-67
2022/12/02 05:28:08;;;;;;;1.95;0.60;;;;;;;2.73;100.00;102253.03;5226248;28;20132;-66
2022/12/02 05:30:40;;;;;;;1.75;0.22;;;;;;;2.74;100.00;102249.50;5235387;28;20040;-66
2022/12/02 05:33:11;;;;;;;2.42;0.40;;;;;;;2.75;100.00;102253.84;5235656;28;20045;-66
2022/12/02 05:35:42;;;;;;;0.95;0.13;;;;;;;2.75;100.00;102266.19;5232654;28;20468;-66
2022/12/02 05:38:13;;;;;;;1.80;0.40;;;;;;;2.77;100.00;102263.50;5236013;28;20178;-66
2022/12/02 05:40:45;;;;;;;0.40;0.17;;;;;;;2.75;100.00;102253.00;5224074;28;20365;-66
2022/12/02 05:43:19;;;;;;;2.85;0.30;;;;;;;2.75;100.00;102251.22;5236898;28;20037;-66
2022/12/02 05:45:56;;;;;;;;;;;;;;;2.75;100.00;102243.31;5235392;28;20927;-66
2022/12/02 05:48:32;;;;;;;2.85;0.60;;;;;;;2.74;100.00;102251.25;5232677;28;19917;-66
2022/12/02 05:51:08;;;;;;;1.00;0.30;;;;;;;2.74;100.00;102245.97;5238606;28;20025;-66
2022/12/02 05:53:42;;;;;;;1.88;0.20;;;;;;;2.73;100.00;102242.47;5235036;28;20461;-66
2022/12/02 05:56:24;;;;;;;1.25;0.45;;;;;;;2.72;100.00;102251.31;5234926;28;20091;-66
2022/12/02 05:59:01;;;;;;;1.55;0.30;;;;;;;2.70;100.00;102247.84;5230424;28;20487;-66
2022/12/02 06:01:40;;;;;;;2.42;0.22;;;;;;;2.69;100.00;102254.00;5237677;28;20459;-66
2022/12/02 06:04:15;;;;;;;3.17;0.60;;;;;;;2.69;100.00;102253.13;5232268;28;20037;-66
2022/12/02 06:06:47;;;;;;;2.90;0.63;;;;;;;2.68;100.00;102246.09;5234254;28;20022;-66
2022/12/02 06:09:23;;;;;;;1.40;0.30;;;;;;;2.67;100.00;102253.16;5225388;28;20040;-66
2022/12/02 06:11:55;;;;;;;4.22;0.98;;;;;;;2.67;100.00;102249.66;5231538;28;20108;-66
2022/12/02 06:14:34;;;;;;;1.75;0.40;;;;;;;2.65;100.00;102251.47;5231158;28;20113;-66
2022/12/02 06:17:15;;;;;;;2.83;0.73;;;;;;;2.63;100.00;102251.50;5233764;28;20056;-66
2022/12/02 06:19:55;;;;;;;5.50;0.75;;;;;;;2.61;100.00;102262.94;5228176;28;20044;-66
2022/12/02 06:22:31;;;;;;;2.85;0.60;;;;;;;2.60;100.00;102258.59;5235143;28;20487;-66
2022/12/02 06:25:17;;;;;;;2.00;0.50;;;;;;;2.61;100.00;102255.03;5237287;28;20175;-66
2022/12/02 06:27:48;;;;;;;3.72;0.80;;;;;;;2.60;100.00;102253.31;5233052;28;20503;-66
2022/12/02 06:30:20;;;;;;;2.30;0.43;;;;;;;2.59;100.00;102249.81;5229701;28;20033;-66
2022/12/02 06:32:54;;;;;;;2.75;0.52;;;;;;;2.61;100.00;102252.41;5234827;28;20368;-66
2022/12/02 06:35:29;;;;;;;2.50;0.50;;;;;;;2.63;100.00;102248.00;5236013;28;20017;-66
2022/12/02 06:38:11;;;;;;;1.50;0.30;;;;;;;2.63;100.00;102251.50;5231000;28;20036;-66
2022/12/02 06:40:43;;;;;;;2.33;0.73;;;;;;;2.61;100.00;102252.41;5232314;28;20390;-66
2022/12/02 06:43:23;;;;;;;3.25;0.45;;;;;;;2.61;100.00;102250.66;5239504;28;20033;-66
2022/12/02 06:45:55;;;;;;;3.53;0.40;;;;;;;2.58;100.00;102247.22;5232540;28;20057;-66
2022/12/02 06:48:35;;;;;;;1.30;0.40;;;;;;;2.58;100.00;102244.56;5224658;28;20038;-66
2022/12/02 06:51:17;;;;;;;4.40;0.80;;;;;;;2.57;100.00;102246.34;5233981;28;20041;-66
2022/12/02 06:53:48;;;;;;;1.45;0.40;;;;;;;2.55;100.00;102246.38;5236351;28;20778;-66
2022/12/02 06:56:27;;;;;;;2.47;0.28;;;;;;;2.55;100.00;102249.00;5235725;28;20458;-66
2022/12/02 06:59:03;;;;;;;2.63;0.63;;;;;;;2.57;100.00;102240.19;5232258;28;20533;-66
2022/12/02 07:01:40;;;;;;;2.13;0.50;;;;;;;2.56;100.00;102241.97;5238240;28;20029;-66
2022/12/02 07:04:25;;;;;;;1.20;0.52;;;;;;;2.58;100.00;102249.84;5232501;28;20036;-66
2022/12/02 07:07:01;;;;;;;2.28;0.65;;;;;;;2.56;100.00;102252.50;5232214;28;20033;-66
2022/12/02 07:09:54;;;;;;;2.63;0.65;;;;;;;2.57;100.00;102266.53;5227799;28;20064;-66
2022/12/02 07:12:34;;;;;;;0.98;0.55;;;;;;;2.55;100.00;102259.56;5240452;28;20036;-66
2022/12/02 07:15:08;;;;;;;2.08;0.57;;;;;;;2.55;100.00;102262.19;5230443;28;20773;-66
2022/12/02 07:17:42;;;;;;;1.70;0.30;;;;;;;2.56;100.00;102252.50;5236237;28;20547;-66
2022/12/02 07:20:14;;;;;;;1.13;0.28;;;;;;;2.54;100.00;102249.91;5228716;28;20035;-66
2022/12/02 07:22:55;;;;;;;1.90;0.20;;;;;;;2.54;100.00;102263.06;5234479;28;20464;-66
2022/12/02 07:25:32;;;;;;;2.50;0.82;;;;;;;2.53;100.00;102266.63;5238765;28;20061;-66
2022/12/02 07:28:22;;;;;;;1.95;0.35;;;;;;;2.54;100.00;102263.06;5231637;28;20033;-66
2022/12/02 07:30:57;;;;;;;2.63;0.63;;;;;;;2.54;100.00;102265.69;5234522;28;20387;-66
2022/12/02 07:33:29;;;;;;;2.88;0.70;;;;;;;2.52;100.00;102267.50;5234019;28;20064;-66
2022/12/02 07:36:00;;;;;;;2.97;0.52;;;;;;;2.51;100.00;102257.00;5231621;28;20057;-66
2022/12/02 07:38:31;;;;;;;2.80;0.68;;;;;;;2.52;100.00;102249.06;5239238;28;20087;-66
2022/12/02 07:41:03;;;;;;;3.20;0.57;;;;;;;2.51;100.00;102252.63;5235030;28;20029;-66
2022/12/02 07:43:34;;;;;;;2.65;0.70;;;;;;;2.50;100.00;102250.00;5233812;28;20036;-66
2022/12/02 07:46:06;;;;;;;3.33;0.50;;;;;;;2.48;100.00;102257.06;5232482;28;20065;-66
2022/12/02 07:48:37;;;;;;;2.35;0.52;;;;;;;2.48;100.00;102251.81;5230865;28;20720;-66
2022/12/02 07:51:08;;;;;;;1.92;0.35;;;;;;;2.47;100.00;102248.28;5227979;28;20033;-66
2022/12/02 07:53:40;;;;;;;2.65;0.60;;;;;;;2.48;100.00;102244.75;5231622;28;20151;-66
2022/12/02 07:56:11;;;;;;;0.85;0.15;;;;;;;2.51;100.00;102252.63;5224744;28;20031;-66
2022/12/02 07:58:42;;;;;;;1.65;0.20;;;;;;;2.53;100.00;102244.66;5234242;28;20075;-66
2022/12/02 08:01:14;;;;;;;0.70;0.32;;;;;;;2.53;100.00;102247.28;5235497;28;20060;-66
2022/12/02 08:03:45;;;;;;;2.00;0.20;;;;;;;2.55;100.00;102248.13;5234203;28;20033;-66
2022/12/02 08:06:16;;;;;;;1.50;0.45;;;;;;;2.56;100.00;102255.13;5226252;28;20036;-66
2022/12/02 08:08:47;;;;;;;0.82;0.20;;;;;;;2.54;100.00;102255.16;5225306;28;20526;-66
2022/12/02 08:11:19;;;;;;;3.85;0.73;;;;;;;2.53;100.00;102256.09;5235506;28;20487;-66
2022/12/02 08:13:50;;;;;;;1.15;0.30;;;;;;;2.53;100.00;102261.34;5235996;28;20476;-66
2022/12/02 08:16:21;;;;;;;2.13;0.38;;;;;;;2.52;100.00;102258.75;5234138;28;20442;-66
2022/12/02 08:18:53;;;;;;;2.78;0.38;;;;;;;2.51;100.00;102263.16;5227782;28;20048;-66
2022/12/02 08:21:24;;;;;;;0.65;0.20;;;;;;;2.49;100.00;102251.78;5228970;28;20061;-66
2022/12/02 08:23:55;;;;;;;0.98;0.17;;;;;;;2.50;100.00;102255.28;5240113;28;20028;-66
2022/12/02 08:26:26;;;;;;;2.65;0.20;;;;;;;2.49;100.00;102243.88;5226527;28;20049;-66
2022/12/02 08:28:58;;;;;;;1.15;0.30;;;;;;;2.51;100.00;102249.97;5226374;28;20028;-66
2022/12/02 08:31:29;;;;;;;2.80;0.40;;;;;;;2.52;100.00;102241.16;5233428;28;20286;-66
2022/12/02 08:34:00;;;;;;;2.25;0.32;;;;;;;2.53;100.00;102255.19;5233016;28;20033;-66
2022/12/02 08:36:33;;;;;;;2.33;0.50;;;;;;;2.52;100.00;102245.56;5230758;28;20053;-66
2022/12/02 08:39:04;;;;;;;1.15;0.32;;;;;;;2.56;100.00;102244.59;5227197;28;20021;-66
2022/12/02 08:41:37;;;;;;;2.38;0.30;;;;;;;2.57;100.00;102246.34;5226137;28;20407;-66
2022/12/02 08:44:08;;;;;;;3.72;0.60;;;;;;;2.57;100.00;102242.81;5227756;28;20029;-66
2022/12/02 08:46:40;;;;;;;1.30;0.47;;;;;;;2.56;100.00;102257.78;5229267;28;20030;-66
2022/12/02 08:49:11;;;;;;;1.52;0.38;;;;;;;2.56;100.00;102249.88;5232219;28;20030;-66
2022/12/02 08:51:43;;;;;;;3.78;0.47;;;;;;;2.53;100.00;102258.72;5227305;28;20033;-66
2022/12/02 08:54:14;;;;;;;2.17;0.50;;;;;;;2.53;100.00;102256.09;5229084;28;20125;-66
2022/12/02 08:56:46;;;;;;;1.98;0.80;;;;;;;2.51;100.00;102255.25;5230270;28;20099;-66
2022/12/02 08:59:17;;;;;;;2.40;0.47;;;;;;;2.47;100.00;102248.28;5228466;28;20514;-66
2022/12/02 09:01:49;;;;;;;3.15;1.15;;;;;;;2.47;100.00;102250.06;5234527;28;20104;-66
2022/12/02 09:04:20;;;;;;;2.30;0.50;;;;;;;2.46;100.00;102254.47;5225591;28;20064;-66
2022/12/02 09:06:51;;;;;;;2.72;0.70;;;;;;;2.46;100.00;102243.94;5233832;28;20466;-66
2022/12/02 09:09:22;;;;;;;3.42;0.73;;;;;;;2.45;100.00;102250.06;5225592;28;20030;-66
2022/12/02 09:11:54;;;;;;;1.13;0.32;;;;;;;2.45;100.00;102243.94;5232047;28;20036;-66
2022/12/02 09:14:25;;;;;;;2.75;0.75;;;;;;;2.45;100.00;102247.44;5262502;28;20083;-66
2022/12/02 09:16:56;;;;;;;1.40;0.50;;;;;;;2.47;100.00;102252.69;5231754;28;20040;-66
2022/12/02 09:19:28;;;;;;;2.83;0.65;;;;;;;2.48;100.00;102252.66;5225510;28;20145;-66
2022/12/02 09:21:59;;;;;;;3.67;0.60;;;;;;;2.47;100.00;102252.69;5237481;28;20022;-66
2022/12/02 09:24:32;;;;;;;6.15;0.98;;;;;;;2.47;100.00;102245.66;5237088;28;20143;-66
2022/12/02 09:27:03;;;;;;;2.13;0.75;;;;;;;2.48;100.00;102247.41;5236375;28;20127;-66
2022/12/02 09:29:34;;;;;;;0.80;0.22;;;;;;;2.47;100.00;102247.41;5238069;28;20469;-66
2022/12/02 09:32:05;;;;;;;1.75;0.57;;;;;;;2.45;100.00;102247.44;5233718;28;20365;-66
2022/12/02 09:34:37;;;;;;;2.22;0.43;;;;;;;2.46;100.00;102243.94;5234388;28;20364;-66
2022/12/02 09:37:08;;;;;;;6.10;1.88;;;;;;;2.43;100.00;102248.38;5233233;28;20021;-66
2022/12/02 09:39:39;;;;;;;5.07;1.70;;;;;;;2.40;100.00;102248.44;5237027;28;20487;-66
2022/12/02 09:42:11;;;;;;;7.60;2.00;;;;;;;2.40;100.00;102244.06;5233117;28;20109;-66
2022/12/02 09:44:43;;;;;;;4.72;1.73;;;;;;;2.40;100.00;102233.53;5226768;28;20026;-66
2022/12/02 09:47:16;;;;;;;7.95;1.83;;;;;;;2.40;100.00;102233.53;5231930;28;20057;-66
2022/12/02 09:49:47;;;;;;;7.53;2.20;;;;;;;2.42;100.00;102228.22;5239182;28;20072;-66
2022/12/02 09:52:24;;;;;;;5.80;2.10;;;;;;;2.41;100.00;102229.09;5235505;28;20361;-66
2022/12/02 09:55:00;;;;;;;8.82;2.92;;;;;;;2.38;100.00;102229.16;5226619;28;20046;-66
2022/12/02 09:57:31;;;;;;;14.70;4.22;;;;;;;2.38;100.00;102237.94;5231145;28;20478;-66
2022/12/02 10:00:06;;;;;;;14.38;4.07;;;;;;;2.40;100.00;102237.91;5233575;28;20033;-66
2022/12/02 10:02:42;;;;;;;16.95;5.18;;;;;;;2.41;100.00;102231.75;5228413;28;20034;-66
2022/12/02 10:05:16;;;;;;;19.23;5.13;;;;;;;2.44;100.00;102227.28;5231027;28;20091;-66
2022/12/02 10:07:49;;;;;;;15.05;5.00;;;;;;;2.45;100.00;102231.63;5227244;28;20156;-66
2022/12/02 10:10:24;;;;;;;18.73;5.93;;;;;;;2.45;100.00;102231.63;5231229;28;20040;-66
2022/12/02 10:12:57;;;;;;;17.08;5.68;;;;;;;2.43;100.00;102228.16;5225689;28;20523;-66
2022/12/02 10:15:30;;;;;;;15.88;5.90;;;;;;;2.43;100.00;102232.56;5233985;28;20054;-65
2022/12/02 10:18:09;;;;;;;15.50;5.07;;;;;;;2.43;100.00;102224.69;5225525;28;20400;-66
2022/12/02 10:20:40;;;;;;;16.92;4.68;;;;;;;2.44;100.00;102226.44;5235478;28;20222;-66
2022/12/02 10:23:16;;;;;;;17.67;5.45;;;;;;;2.47;100.00;102231.63;5235996;28;20039;-66
2022/12/02 10:25:54;;;;;;;16.98;4.75;;;;;;;2.46;100.00;102222.00;5238368;28;20021;-66
2022/12/02 10:28:32;;;;;;;20.10;5.88;;;;;;;2.48;100.00;102226.31;5230128;28;20029;-66
2022/12/02 10:31:13;;;;;;;21.13;5.80;;;;;;;2.51;100.00;102228.91;5234434;28;20104;-66
2022/12/02 10:33:55;;;;;;;19.92;6.35;;;;;;;2.48;100.00;102228.09;5235978;28;20065;-66
2022/12/02 10:36:31;;;;;;;21.95;6.72;;;;;;;2.46;100.00;102220.22;5233751;28;20431;-66
2022/12/02 10:39:24;;;;;;;23.83;5.30;;;;;;;2.48;100.00;102217.56;5227682;28;20471;-66
2022/12/02 10:42:07;;;;;;;25.23;6.93;;;;;;;2.43;100.00;102215.00;5225882;28;20033;-66
2022/12/02 10:44:43;;;;;;;28.38;7.70;;;;;;;2.43;100.00;102208.88;5236053;28;20451;-66
2022/12/02 10:47:19;;;;;;;28.60;7.65;;;;;;;2.41;100.00;102208.91;5232427;28;20205;-66
2022/12/02 10:49:53;;;;;;;34.95;7.65;;;;;;;2.43;100.00;102195.69;5233009;28;20191;-66
2022/12/02 10:52:30;;;;;;;36.83;8.98;;;;;;;2.43;100.00;102199.19;5230118;28;20022;-66
2022/12/02 10:55:03;;;;;;;44.17;9.82;;;;;;;2.43;100.00;102200.97;5247788;28;20041;-67
2022/12/02 10:57:36;;;;;;;44.05;10.55;;;;;;;2.43;100.00;102198.34;5230660;28;20029;-66
2022/12/02 11:00:18;;;;;;;41.88;10.30;;;;;;;2.46;100.00;102193.88;5229711;28;20033;-66
2022/12/02 11:02:53;;;;;;;44.40;11.02;;;;;;;2.43;100.00;102193.94;5230300;28;20033;-66
2022/12/02 11:05:34;;;;;;;40.75;9.88;;;;;;;2.48;100.00;102191.22;5223997;28;20380;-66
2022/12/02 11:08:17;;;;;;;44.97;10.85;;;;;;;2.48;100.00;102189.44;5233535;28;20480;-66
2022/12/02 11:11:07;;;;;;;54.90;11.23;;;;;;;2.51;100.00;102193.75;5226454;28;20064;-66
2022/12/02 11:13:50;;;;;;;48.40;11.73;;;;;;;2.60;100.00;102190.09;5228383;28;20017;-66
2022/12/02 11:16:27;;;;;;;58.03;12.50;;;;;;;2.60;100.00;102193.56;5235482;28;20040;-67
2022/12/02 11:19:07;;;;;;;52.30;11.55;;;;;;;2.64;100.00;102181.22;5230429;28;20072;-67
2022/12/02 11:21:41;;;;;;;50.22;12.02;;;;;;;2.62;100.00;102188.28;5226169;28;20037;-66
2022/12/02 11:24:39;;;;;;;51.67;12.27;;;;;;;2.67;100.00;102184.66;5231123;28;20144;-66
2022/12/02 11:27:11;;;;;;;55.95;11.77;;;;;;;2.65;100.00;102175.06;5230317;28;20413;-66
2022/12/02 11:30:05;;;;;;;59.50;13.15;;;;;;;2.69;100.00;102181.97;5229849;28;20033;-66
2022/12/02 11:32:37;;;;;;;65.88;13.32;;;;;;;2.68;100.00;102170.56;5229269;28;20025;-66
2022/12/02 11:35:15;;;;;;;72.43;14.15;;;;;;;2.72;100.00;102177.50;5233782;28;20099;-66
2022/12/02 11:37:47;;;;;;;79.05;15.90;;;;;;;2.73;100.00;102173.09;5231894;28;20112;-66
2022/12/02 11:40:18;;;;;;;89.97;17.08;;;;;;;2.72;100.00;102168.72;5232744;28;20026;-66
2022/12/02 11:42:51;;;;;;;93.80;18.08;;;;;;;2.73;100.00;102165.19;5233827;28;20426;-66
2022/12/02 11:45:22;;;;;;;75.72;18.45;;;;;;;2.75;100.00;102171.28;5234417;28;20041;-66
2022/12/02 11:47:54;;;;;;;83.38;17.60;;;;;;;2.77;100.00;102173.91;5226649;28;20029;-66
2022/12/02 11:50:37;;;;;;;83.03;18.52;;;;;;;2.81;100.00;102171.16;5234492;28;20083;-66
2022/12/02 11:53:15;;;;;;;88.60;20.05;;;;;;;2.77;100.00;102172.13;5233734;28;20037;-66
2022/12/02 11:55:50;;;;;;;103.65;21.52;;;;;;;2.75;100.00;102174.78;5231790;28;20057;-67
2022/12/02 11:58:34;;;;;;;;;;;;;;;2.87;100.00;102171.00;5229077;28;20183;-66